sensor_id;sensor_type;location;lat;lon;timestamp;P1;P2;P0
69746;PMS7003;57018;50.278;19.134;2022-10-22T00:00:25;28.25;26.00;17.75
69746;PMS7003;57018;50.278;19.134;2022-10-22T00:02:51;25.25;24.50;16.25
69746;PMS7003;57018;50.278;19.134;2022-10-22T00:05:17;27.00;25.50;16.75
69746;PMS7003;57018;50.278;19.134;2022-10-22T00:07:43;26.75;25.00;16.00
69746;PMS7003;57018;50.278;19.134;2022-10-22T00:10:09;25.25;24.25;16.25
69746;PMS7003;57018;50.278;19.134;2022-10-22T00:12:37;30.75;28.75;19.00
69746;PMS7003;57018;50.278;19.134;2022-10-22T00:15:04;26.50;26.00;16.75
69746;PMS7003;57018;50.278;19.134;2022-10-22T00:17:31;27.50;24.75;16.75
69746;PMS7003;57018;50.278;19.134;2022-10-22T00:19:57;26.00;25.25;15.75
69746;PMS7003;57018;50.278;19.134;2022-10-22T00:22:23;25.00;23.25;17.50
69746;PMS7003;57018;50.278;19.134;2022-10-22T00:24:50;35.00;29.00;19.75
69746;PMS7003;57018;50.278;19.134;2022-10-22T00:27:16;33.00;29.75;17.50
69746;PMS7003;57018;50.278;19.134;2022-10-22T00:29:42;26.50;25.25;17.00
69746;PMS7003;57018;50.278;19.134;2022-10-22T00:32:08;33.25;33.00;22.25
69746;PMS7003;57018;50.278;19.134;2022-10-22T00:34:34;39.00;34.75;23.25
69746;PMS7003;57018;50.278;19.134;2022-10-22T00:37:00;42.50;34.50;22.75
69746;PMS7003;57018;50.278;19.134;2022-10-22T00:39:27;33.25;29.25;21.75
69746;PMS7003;57018;50.278;19.134;2022-10-22T00:41:54;30.00;28.25;21.00
69746;PMS7003;57018;50.278;19.134;2022-10-22T00:47:25;26.75;25.75;18.25
69746;PMS7003;57018;50.278;19.134;2022-10-22T00:49:54;29.50;27.50;19.25
69746;PMS7003;57018;50.278;19.134;2022-10-22T00:52:22;23.50;22.00;16.75
69746;PMS7003;57018;50.278;19.134;2022-10-22T00:54:49;27.00;23.75;16.25
69746;PMS7003;57018;50.278;19.134;2022-10-22T00:57:16;28.50;23.25;15.25
69746;PMS7003;57018;50.278;19.134;2022-10-22T00:59:44;25.50;24.00;15.75
69746;PMS7003;57018;50.278;19.134;2022-10-22T01:02:11;28.75;23.75;16.25
69746;PMS7003;57018;50.278;19.134;2022-10-22T01:04:37;30.00;25.75;17.50
69746;PMS7003;57018;50.278;19.134;2022-10-22T01:07:04;23.50;21.00;14.50
69746;PMS7003;57018;50.278;19.134;2022-10-22T01:09:41;28.00;25.50;17.75
69746;PMS7003;57018;50.278;19.134;2022-10-22T01:12:24;26.00;23.25;16.25
69746;PMS7003;57018;50.278;19.134;2022-10-22T01:15:09;30.25;25.75;17.00
69746;PMS7003;57018;50.278;19.134;2022-10-22T01:20:16;24.50;22.75;18.25
69746;PMS7003;57018;50.278;19.134;2022-10-22T01:22:53;29.75;24.25;18.75
69746;PMS7003;57018;50.278;19.134;2022-10-22T01:25:34;26.00;23.00;14.00
69746;PMS7003;57018;50.278;19.134;2022-10-22T01:30:52;29.00;25.50;17.25
69746;PMS7003;57018;50.278;19.134;2022-10-22T01:33:21;28.00;23.75;17.75
69746;PMS7003;57018;50.278;19.134;2022-10-22T01:35:49;30.00;25.75;20.00
69746;PMS7003;57018;50.278;19.134;2022-10-22T01:38:18;25.00;20.50;15.00
69746;PMS7003;57018;50.278;19.134;2022-10-22T01:40:47;30.50;24.50;18.00
69746;PMS7003;57018;50.278;19.134;2022-10-22T01:43:15;29.50;24.75;15.50
69746;PMS7003;57018;50.278;19.134;2022-10-22T01:45:42;23.00;23.00;18.25
69746;PMS7003;57018;50.278;19.134;2022-10-22T01:48:33;26.00;24.00;19.00
69746;PMS7003;57018;50.278;19.134;2022-10-22T01:59:01;27.00;24.25;18.25
69746;PMS7003;57018;50.278;19.134;2022-10-22T02:06:44;26.75;23.75;16.00
69746;PMS7003;57018;50.278;19.134;2022-10-22T02:09:13;33.00;25.75;18.00
69746;PMS7003;57018;50.278;19.134;2022-10-22T02:11:41;28.75;22.50;17.50
69746;PMS7003;57018;50.278;19.134;2022-10-22T02:14:09;20.00;20.00;15.25
69746;PMS7003;57018;50.278;19.134;2022-10-22T02:16:38;28.75;25.50;18.00
69746;PMS7003;57018;50.278;19.134;2022-10-22T02:21:53;22.00;20.00;14.00
69746;PMS7003;57018;50.278;19.134;2022-10-22T02:24:20;21.50;21.25;15.00
69746;PMS7003;57018;50.278;19.134;2022-10-22T02:26:51;21.75;21.25;15.75
69746;PMS7003;57018;50.278;19.134;2022-10-22T02:29:34;21.00;21.00;13.25
69746;PMS7003;57018;50.278;19.134;2022-10-22T02:32:07;28.00;24.75;19.00
69746;PMS7003;57018;50.278;19.134;2022-10-22T02:34:36;20.50;20.00;12.75
69746;PMS7003;57018;50.278;19.134;2022-10-22T02:37:02;24.25;22.75;17.50
69746;PMS7003;57018;50.278;19.134;2022-10-22T02:39:30;30.25;28.50;17.75
69746;PMS7003;57018;50.278;19.134;2022-10-22T02:41:57;21.75;20.25;16.25
69746;PMS7003;57018;50.278;19.134;2022-10-22T02:44:26;24.50;20.75;15.00
69746;PMS7003;57018;50.278;19.134;2022-10-22T02:46:52;24.00;21.25;16.75
69746;PMS7003;57018;50.278;19.134;2022-10-22T02:49:18;17.75;17.50;14.00
69746;PMS7003;57018;50.278;19.134;2022-10-22T02:51:45;24.50;24.00;17.75
69746;PMS7003;57018;50.278;19.134;2022-10-22T02:54:11;20.75;20.50;14.00
69746;PMS7003;57018;50.278;19.134;2022-10-22T02:56:37;26.25;23.75;19.25
69746;PMS7003;57018;50.278;19.134;2022-10-22T02:59:03;26.00;26.00;19.75
69746;PMS7003;57018;50.278;19.134;2022-10-22T03:01:29;28.00;27.25;19.50
69746;PMS7003;57018;50.278;19.134;2022-10-22T03:03:55;32.00;27.00;19.50
69746;PMS7003;57018;50.278;19.134;2022-10-22T03:06:21;28.50;26.00;17.50
69746;PMS7003;57018;50.278;19.134;2022-10-22T03:08:47;28.75;26.25;18.25
69746;PMS7003;57018;50.278;19.134;2022-10-22T03:11:13;28.50;25.75;18.25
69746;PMS7003;57018;50.278;19.134;2022-10-22T03:13:39;25.50;22.25;15.75
69746;PMS7003;57018;50.278;19.134;2022-10-22T03:16:05;26.00;24.00;16.50
69746;PMS7003;57018;50.278;19.134;2022-10-22T03:18:31;30.25;23.75;15.50
69746;PMS7003;57018;50.278;19.134;2022-10-22T03:21:02;29.75;24.75;16.75
69746;PMS7003;57018;50.278;19.134;2022-10-22T03:23:30;32.00;29.25;20.25
69746;PMS7003;57018;50.278;19.134;2022-10-22T03:25:56;32.00;26.25;17.75
69746;PMS7003;57018;50.278;19.134;2022-10-22T03:28:24;25.75;23.00;18.50
69746;PMS7003;57018;50.278;19.134;2022-10-22T03:30:51;26.25;24.75;17.75
69746;PMS7003;57018;50.278;19.134;2022-10-22T03:33:17;24.25;23.75;17.50
69746;PMS7003;57018;50.278;19.134;2022-10-22T03:35:44;25.75;23.50;17.50
69746;PMS7003;57018;50.278;19.134;2022-10-22T03:38:12;28.50;22.50;16.75
69746;PMS7003;57018;50.278;19.134;2022-10-22T03:40:39;21.75;21.00;16.00
69746;PMS7003;57018;50.278;19.134;2022-10-22T03:43:07;33.25;27.00;17.75
69746;PMS7003;57018;50.278;19.134;2022-10-22T03:45:33;25.50;24.50;18.25
69746;PMS7003;57018;50.278;19.134;2022-10-22T03:47:59;21.25;20.50;16.00
69746;PMS7003;57018;50.278;19.134;2022-10-22T03:50:25;27.75;24.25;17.75
69746;PMS7003;57018;50.278;19.134;2022-10-22T03:52:51;31.25;28.50;18.75
69746;PMS7003;57018;50.278;19.134;2022-10-22T03:55:18;28.00;25.00;17.75
69746;PMS7003;57018;50.278;19.134;2022-10-22T03:57:44;30.75;25.00;17.75
69746;PMS7003;57018;50.278;19.134;2022-10-22T04:00:10;29.25;25.50;19.75
69746;PMS7003;57018;50.278;19.134;2022-10-22T04:02:36;27.75;25.25;18.00
69746;PMS7003;57018;50.278;19.134;2022-10-22T04:05:02;30.00;26.00;20.25
69746;PMS7003;57018;50.278;19.134;2022-10-22T04:07:28;24.75;23.75;17.25
69746;PMS7003;57018;50.278;19.134;2022-10-22T04:09:54;34.50;29.50;20.25
69746;PMS7003;57018;50.278;19.134;2022-10-22T04:12:20;35.25;30.75;21.75
69746;PMS7003;57018;50.278;19.134;2022-10-22T04:14:46;29.25;25.25;18.50
69746;PMS7003;57018;50.278;19.134;2022-10-22T04:17:13;37.50;33.75;23.00
69746;PMS7003;57018;50.278;19.134;2022-10-22T04:19:39;32.75;30.25;19.25
69746;PMS7003;57018;50.278;19.134;2022-10-22T04:22:05;30.50;30.50;19.50
69746;PMS7003;57018;50.278;19.134;2022-10-22T04:24:31;31.00;28.00;19.50
69746;PMS7003;57018;50.278;19.134;2022-10-22T04:26:57;33.25;28.50;18.00
69746;PMS7003;57018;50.278;19.134;2022-10-22T04:29:24;36.25;33.00;20.00
69746;PMS7003;57018;50.278;19.134;2022-10-22T04:31:50;37.50;33.75;23.00
69746;PMS7003;57018;50.278;19.134;2022-10-22T04:34:16;33.75;30.25;20.50
69746;PMS7003;57018;50.278;19.134;2022-10-22T04:36:42;39.25;34.00;21.25
69746;PMS7003;57018;50.278;19.134;2022-10-22T04:39:08;38.00;34.25;23.50
69746;PMS7003;57018;50.278;19.134;2022-10-22T04:41:35;35.75;33.50;20.00
69746;PMS7003;57018;50.278;19.134;2022-10-22T04:44:03;39.00;31.25;22.25
69746;PMS7003;57018;50.278;19.134;2022-10-22T04:46:31;41.50;32.50;23.00
69746;PMS7003;57018;50.278;19.134;2022-10-22T04:48:58;34.25;33.75;22.25
69746;PMS7003;57018;50.278;19.134;2022-10-22T04:51:25;36.25;32.00;23.00
69746;PMS7003;57018;50.278;19.134;2022-10-22T04:53:52;35.25;30.75;23.00
69746;PMS7003;57018;50.278;19.134;2022-10-22T04:56:23;33.50;31.50;20.00
69746;PMS7003;57018;50.278;19.134;2022-10-22T04:58:52;32.50;28.50;20.75
69746;PMS7003;57018;50.278;19.134;2022-10-22T05:01:27;28.75;27.75;19.25
69746;PMS7003;57018;50.278;19.134;2022-10-22T05:03:55;28.50;26.50;18.25
69746;PMS7003;57018;50.278;19.134;2022-10-22T05:06:24;29.00;26.75;18.25
69746;PMS7003;57018;50.278;19.134;2022-10-22T05:08:51;32.25;29.75;20.75
69746;PMS7003;57018;50.278;19.134;2022-10-22T05:11:20;30.25;29.00;20.75
69746;PMS7003;57018;50.278;19.134;2022-10-22T05:13:49;43.00;35.50;24.00
69746;PMS7003;57018;50.278;19.134;2022-10-22T05:16:15;46.00;38.25;25.00
69746;PMS7003;57018;50.278;19.134;2022-10-22T05:18:42;48.25;36.25;25.00
69746;PMS7003;57018;50.278;19.134;2022-10-22T05:21:14;34.00;28.25;23.50
69746;PMS7003;57018;50.278;19.134;2022-10-22T05:23:42;46.25;37.25;25.00
69746;PMS7003;57018;50.278;19.134;2022-10-22T05:26:11;38.50;36.00;25.00
69746;PMS7003;57018;50.278;19.134;2022-10-22T05:28:38;45.00;36.25;24.25
69746;PMS7003;57018;50.278;19.134;2022-10-22T05:31:05;47.25;39.75;26.75
69746;PMS7003;57018;50.278;19.134;2022-10-22T05:33:33;39.75;36.75;25.00
69746;PMS7003;57018;50.278;19.134;2022-10-22T05:36:00;51.25;43.00;26.75
69746;PMS7003;57018;50.278;19.134;2022-10-22T05:38:28;41.75;35.00;25.00
69746;PMS7003;57018;50.278;19.134;2022-10-22T05:41:01;43.50;36.75;25.00
69746;PMS7003;57018;50.278;19.134;2022-10-22T05:43:32;41.50;37.00;24.25
69746;PMS7003;57018;50.278;19.134;2022-10-22T05:46:06;37.75;32.75;22.25
69746;PMS7003;57018;50.278;19.134;2022-10-22T05:48:35;41.00;35.25;24.00
69746;PMS7003;57018;50.278;19.134;2022-10-22T05:51:10;35.00;34.00;22.25
69746;PMS7003;57018;50.278;19.134;2022-10-22T05:53:35;41.25;36.00;23.50
69746;PMS7003;57018;50.278;19.134;2022-10-22T05:56:03;43.25;36.25;25.00
69746;PMS7003;57018;50.278;19.134;2022-10-22T05:58:31;37.75;36.25;24.75
69746;PMS7003;57018;50.278;19.134;2022-10-22T06:01:06;40.75;34.00;22.25
69746;PMS7003;57018;50.278;19.134;2022-10-22T06:03:30;42.75;37.75;25.00
69746;PMS7003;57018;50.278;19.134;2022-10-22T06:06:00;44.50;37.00;24.25
69746;PMS7003;57018;50.278;19.134;2022-10-22T06:08:29;34.25;31.50;20.75
69746;PMS7003;57018;50.278;19.134;2022-10-22T06:10:55;46.75;36.00;25.75
69746;PMS7003;57018;50.278;19.134;2022-10-22T06:13:21;52.25;38.25;25.25
69746;PMS7003;57018;50.278;19.134;2022-10-22T06:15:48;50.00;40.25;25.75
69746;PMS7003;57018;50.278;19.134;2022-10-22T06:18:17;39.75;34.50;22.25
69746;PMS7003;57018;50.278;19.134;2022-10-22T06:20:43;40.00;35.25;25.25
69746;PMS7003;57018;50.278;19.134;2022-10-22T06:23:09;40.50;35.00;23.75
69746;PMS7003;57018;50.278;19.134;2022-10-22T06:25:35;38.25;33.50;23.25
69746;PMS7003;57018;50.278;19.134;2022-10-22T06:28:01;39.75;33.25;22.75
69746;PMS7003;57018;50.278;19.134;2022-10-22T06:30:28;38.00;33.75;22.75
69746;PMS7003;57018;50.278;19.134;2022-10-22T06:32:54;35.00;32.25;22.00
69746;PMS7003;57018;50.278;19.134;2022-10-22T06:35:20;32.25;29.75;22.00
69746;PMS7003;57018;50.278;19.134;2022-10-22T06:37:47;38.50;33.25;22.00
69746;PMS7003;57018;50.278;19.134;2022-10-22T06:40:13;35.50;31.75;21.75
69746;PMS7003;57018;50.278;19.134;2022-10-22T06:42:41;34.00;29.75;21.00
69746;PMS7003;57018;50.278;19.134;2022-10-22T06:45:07;32.75;30.25;20.00
69746;PMS7003;57018;50.278;19.134;2022-10-22T06:47:34;29.75;29.25;21.00
69746;PMS7003;57018;50.278;19.134;2022-10-22T06:50:01;35.75;32.00;22.00
69746;PMS7003;57018;50.278;19.134;2022-10-22T06:52:27;24.75;23.75;17.50
69746;PMS7003;57018;50.278;19.134;2022-10-22T06:54:53;30.25;28.25;19.25
69746;PMS7003;57018;50.278;19.134;2022-10-22T06:57:19;33.25;29.00;20.50
69746;PMS7003;57018;50.278;19.134;2022-10-22T06:59:45;35.25;31.75;21.00
69746;PMS7003;57018;50.278;19.134;2022-10-22T07:02:11;31.25;29.00;19.75
69746;PMS7003;57018;50.278;19.134;2022-10-22T07:04:37;34.00;27.50;19.25
69746;PMS7003;57018;50.278;19.134;2022-10-22T07:07:03;30.25;27.25;17.00
69746;PMS7003;57018;50.278;19.134;2022-10-22T07:09:29;30.00;27.75;18.25
69746;PMS7003;57018;50.278;19.134;2022-10-22T07:11:55;34.00;31.00;20.25
69746;PMS7003;57018;50.278;19.134;2022-10-22T07:14:21;31.25;30.00;20.25
69746;PMS7003;57018;50.278;19.134;2022-10-22T07:16:47;31.00;27.50;20.00
69746;PMS7003;57018;50.278;19.134;2022-10-22T07:19:13;28.50;26.50;18.00
69746;PMS7003;57018;50.278;19.134;2022-10-22T07:21:40;34.50;31.00;21.25
69746;PMS7003;57018;50.278;19.134;2022-10-22T07:24:06;34.75;29.50;20.00
69746;PMS7003;57018;50.278;19.134;2022-10-22T07:26:32;32.75;28.50;20.00
69746;PMS7003;57018;50.278;19.134;2022-10-22T07:28:59;30.75;27.00;19.00
69746;PMS7003;57018;50.278;19.134;2022-10-22T07:31:25;35.50;31.50;21.25
69746;PMS7003;57018;50.278;19.134;2022-10-22T07:33:51;29.00;26.75;18.75
69746;PMS7003;57018;50.278;19.134;2022-10-22T07:36:17;23.75;23.00;17.00
69746;PMS7003;57018;50.278;19.134;2022-10-22T07:38:45;26.25;24.75;17.00
69746;PMS7003;57018;50.278;19.134;2022-10-22T07:41:13;26.50;24.75;16.50
69746;PMS7003;57018;50.278;19.134;2022-10-22T07:43:41;28.25;26.50;19.25
69746;PMS7003;57018;50.278;19.134;2022-10-22T07:46:07;27.25;25.25;18.00
69746;PMS7003;57018;50.278;19.134;2022-10-22T07:48:34;26.00;25.50;18.25
69746;PMS7003;57018;50.278;19.134;2022-10-22T07:51:01;34.75;31.75;19.50
69746;PMS7003;57018;50.278;19.134;2022-10-22T07:53:32;29.75;27.00;18.25
69746;PMS7003;57018;50.278;19.134;2022-10-22T07:55:58;29.25;26.50;18.00
69746;PMS7003;57018;50.278;19.134;2022-10-22T07:58:25;29.00;26.75;18.75
69746;PMS7003;57018;50.278;19.134;2022-10-22T08:00:53;31.25;29.00;18.25
69746;PMS7003;57018;50.278;19.134;2022-10-22T08:03:22;32.75;31.25;20.75
69746;PMS7003;57018;50.278;19.134;2022-10-22T08:05:50;30.00;29.00;22.25
69746;PMS7003;57018;50.278;19.134;2022-10-22T08:08:20;37.25;33.00;22.00
69746;PMS7003;57018;50.278;19.134;2022-10-22T08:10:46;29.25;29.00;18.00
69746;PMS7003;57018;50.278;19.134;2022-10-22T08:13:15;38.00;30.50;18.75
69746;PMS7003;57018;50.278;19.134;2022-10-22T08:15:42;31.50;28.50;19.50
69746;PMS7003;57018;50.278;19.134;2022-10-22T08:18:10;29.00;29.00;21.25
69746;PMS7003;57018;50.278;19.134;2022-10-22T08:20:36;36.50;32.00;21.75
69746;PMS7003;57018;50.278;19.134;2022-10-22T08:23:02;31.50;25.25;17.00
69746;PMS7003;57018;50.278;19.134;2022-10-22T08:25:33;35.00;31.75;20.50
69746;PMS7003;57018;50.278;19.134;2022-10-22T08:27:57;37.00;30.25;20.00
69746;PMS7003;57018;50.278;19.134;2022-10-22T08:30:23;34.00;32.50;23.25
69746;PMS7003;57018;50.278;19.134;2022-10-22T08:32:51;33.75;29.75;22.00
69746;PMS7003;57018;50.278;19.134;2022-10-22T08:35:18;34.25;34.00;21.75
69746;PMS7003;57018;50.278;19.134;2022-10-22T08:37:44;29.25;29.00;21.50
69746;PMS7003;57018;50.278;19.134;2022-10-22T08:40:12;31.25;29.25;20.50
69746;PMS7003;57018;50.278;19.134;2022-10-22T08:45:29;36.25;32.00;22.50
69746;PMS7003;57018;50.278;19.134;2022-10-22T08:50:51;30.75;28.75;19.75
69746;PMS7003;57018;50.278;19.134;2022-10-22T08:53:22;32.25;29.25;19.00
69746;PMS7003;57018;50.278;19.134;2022-10-22T08:56:05;32.50;28.00;19.00
69746;PMS7003;57018;50.278;19.134;2022-10-22T08:58:39;35.00;29.75;21.25
69746;PMS7003;57018;50.278;19.134;2022-10-22T09:08:52;29.25;28.00;18.25
69746;PMS7003;57018;50.278;19.134;2022-10-22T09:11:26;31.75;29.00;20.50
69746;PMS7003;57018;50.278;19.134;2022-10-22T09:13:55;30.25;26.50;17.50
69746;PMS7003;57018;50.278;19.134;2022-10-22T09:24:59;39.25;33.75;22.25
69746;PMS7003;57018;50.278;19.134;2022-10-22T09:27:29;38.75;36.00;23.25
69746;PMS7003;57018;50.278;19.134;2022-10-22T09:29:56;36.75;34.00;23.25
69746;PMS7003;57018;50.278;19.134;2022-10-22T09:32:22;38.00;33.50;23.25
69746;PMS7003;57018;50.278;19.134;2022-10-22T09:34:48;37.25;34.75;23.50
69746;PMS7003;57018;50.278;19.134;2022-10-22T09:37:16;37.00;35.00;23.50
69746;PMS7003;57018;50.278;19.134;2022-10-22T09:39:46;42.00;36.25;23.75
69746;PMS7003;57018;50.278;19.134;2022-10-22T09:42:15;36.25;33.50;22.75
69746;PMS7003;57018;50.278;19.134;2022-10-22T09:44:43;33.75;30.00;23.00
69746;PMS7003;57018;50.278;19.134;2022-10-22T09:55:40;40.75;37.25;26.00
69746;PMS7003;57018;50.278;19.134;2022-10-22T09:58:07;42.00;36.00;23.25
69746;PMS7003;57018;50.278;19.134;2022-10-22T10:00:44;39.50;36.25;24.50
69746;PMS7003;57018;50.278;19.134;2022-10-22T10:03:05;33.50;31.00;21.00
69746;PMS7003;57018;50.278;19.134;2022-10-22T10:05:32;35.50;32.25;23.25
69746;PMS7003;57018;50.278;19.134;2022-10-22T10:08:06;43.75;38.50;26.00
69746;PMS7003;57018;50.278;19.134;2022-10-22T10:10:33;40.00;36.25;25.50
69746;PMS7003;57018;50.278;19.134;2022-10-22T10:13:23;38.25;33.50;24.75
69746;PMS7003;57018;50.278;19.134;2022-10-22T10:16:10;43.00;37.50;25.50
69746;PMS7003;57018;50.278;19.134;2022-10-22T10:19:20;49.25;39.00;26.50
69746;PMS7003;57018;50.278;19.134;2022-10-22T10:26:59;50.25;39.75;27.25
69746;PMS7003;57018;50.278;19.134;2022-10-22T10:32:16;44.25;38.75;26.00
69746;PMS7003;57018;50.278;19.134;2022-10-22T10:43:03;41.00;36.00;26.50
69746;PMS7003;57018;50.278;19.134;2022-10-22T10:45:41;44.50;38.00;25.00
69746;PMS7003;57018;50.278;19.134;2022-10-22T11:00:03;43.00;35.00;23.25
69746;PMS7003;57018;50.278;19.134;2022-10-22T11:05:38;44.75;37.75;23.25
69746;PMS7003;57018;50.278;19.134;2022-10-22T11:08:26;47.50;38.00;25.00
69746;PMS7003;57018;50.278;19.134;2022-10-22T11:11:01;48.25;39.00;25.25
69746;PMS7003;57018;50.278;19.134;2022-10-22T11:16:17;48.50;38.25;26.25
69746;PMS7003;57018;50.278;19.134;2022-10-22T11:21:28;43.75;37.00;24.00
69746;PMS7003;57018;50.278;19.134;2022-10-22T11:26:40;49.50;38.75;25.50
69746;PMS7003;57018;50.278;19.134;2022-10-22T11:29:10;49.25;40.50;25.75
69746;PMS7003;57018;50.278;19.134;2022-10-22T11:31:39;56.00;44.50;29.00
69746;PMS7003;57018;50.278;19.134;2022-10-22T11:34:12;56.50;44.50;27.25
69746;PMS7003;57018;50.278;19.134;2022-10-22T11:36:42;53.75;40.50;27.00
69746;PMS7003;57018;50.278;19.134;2022-10-22T11:41:58;58.25;44.75;30.00
69746;PMS7003;57018;50.278;19.134;2022-10-22T11:44:30;53.50;43.25;27.75
69746;PMS7003;57018;50.278;19.134;2022-10-22T11:47:51;52.25;41.75;27.25
69746;PMS7003;57018;50.278;19.134;2022-10-22T11:49:43;51.25;40.50;26.75
69746;PMS7003;57018;50.278;19.134;2022-10-22T11:52:48;49.00;39.25;27.50
69746;PMS7003;57018;50.278;19.134;2022-10-22T11:54:53;47.75;37.50;23.25
69746;PMS7003;57018;50.278;19.134;2022-10-22T11:57:26;36.75;33.75;22.50
69746;PMS7003;57018;50.278;19.134;2022-10-22T11:59:57;44.50;36.75;24.25
69746;PMS7003;57018;50.278;19.134;2022-10-22T12:07:58;45.00;37.50;24.00
69746;PMS7003;57018;50.278;19.134;2022-10-22T12:10:47;43.75;37.25;26.00
69746;PMS7003;57018;50.278;19.134;2022-10-22T12:13:26;46.75;38.00;26.00
69746;PMS7003;57018;50.278;19.134;2022-10-22T12:15:55;52.75;42.75;28.25
69746;PMS7003;57018;50.278;19.134;2022-10-22T12:18:30;52.50;42.00;27.75
69746;PMS7003;57018;50.278;19.134;2022-10-22T12:21:05;50.50;41.00;26.50
69746;PMS7003;57018;50.278;19.134;2022-10-22T12:23:33;50.00;41.00;27.00
69746;PMS7003;57018;50.278;19.134;2022-10-22T12:26:02;46.25;39.00;25.75
69746;PMS7003;57018;50.278;19.134;2022-10-22T12:28:38;49.50;40.25;26.25
69746;PMS7003;57018;50.278;19.134;2022-10-22T12:31:05;52.25;42.75;26.75
69746;PMS7003;57018;50.278;19.134;2022-10-22T12:33:33;54.00;43.25;28.25
69746;PMS7003;57018;50.278;19.134;2022-10-22T12:36:01;49.75;42.25;28.75
69746;PMS7003;57018;50.278;19.134;2022-10-22T12:38:28;51.00;42.00;28.75
69746;PMS7003;57018;50.278;19.134;2022-10-22T12:40:55;51.75;40.00;26.00
69746;PMS7003;57018;50.278;19.134;2022-10-22T12:43:26;48.50;40.25;27.50
69746;PMS7003;57018;50.278;19.134;2022-10-22T12:45:54;53.00;43.75;28.50
69746;PMS7003;57018;50.278;19.134;2022-10-22T12:48:29;48.25;40.50;27.00
69746;PMS7003;57018;50.278;19.134;2022-10-22T12:50:59;52.50;43.25;28.75
69746;PMS7003;57018;50.278;19.134;2022-10-22T12:53:29;58.50;46.75;28.75
69746;PMS7003;57018;50.278;19.134;2022-10-22T12:56:03;48.75;40.25;26.25
69746;PMS7003;57018;50.278;19.134;2022-10-22T12:58:36;46.25;39.25;26.75
69746;PMS7003;57018;50.278;19.134;2022-10-22T13:01:01;45.25;38.50;26.00
69746;PMS7003;57018;50.278;19.134;2022-10-22T13:03:29;48.00;39.00;26.00
69746;PMS7003;57018;50.278;19.134;2022-10-22T13:06:10;47.00;40.00;28.00
69746;PMS7003;57018;50.278;19.134;2022-10-22T13:08:54;47.00;38.75;24.50
69746;PMS7003;57018;50.278;19.134;2022-10-22T13:11:23;50.50;39.25;26.00
69746;PMS7003;57018;50.278;19.134;2022-10-22T13:13:50;50.00;40.00;26.50
69746;PMS7003;57018;50.278;19.134;2022-10-22T13:16:21;50.25;42.00;27.25
69746;PMS7003;57018;50.278;19.134;2022-10-22T13:18:50;50.50;41.25;28.00
69746;PMS7003;57018;50.278;19.134;2022-10-22T13:21:35;44.25;36.00;23.25
69746;PMS7003;57018;50.278;19.134;2022-10-22T13:24:20;50.50;42.50;28.00
69746;PMS7003;57018;50.278;19.134;2022-10-22T13:26:48;45.00;37.75;27.00
69746;PMS7003;57018;50.278;19.134;2022-10-22T13:29:17;54.00;43.75;29.00
69746;PMS7003;57018;50.278;19.134;2022-10-22T13:31:46;49.75;40.75;26.00
69746;PMS7003;57018;50.278;19.134;2022-10-22T13:34:22;50.25;41.50;27.00
69746;PMS7003;57018;50.278;19.134;2022-10-22T13:36:50;49.00;39.75;26.75
69746;PMS7003;57018;50.278;19.134;2022-10-22T13:39:18;53.50;44.00;28.75
69746;PMS7003;57018;50.278;19.134;2022-10-22T13:41:46;45.75;38.25;25.25
69746;PMS7003;57018;50.278;19.134;2022-10-22T13:44:15;47.75;40.75;26.50
69746;PMS7003;57018;50.278;19.134;2022-10-22T13:46:42;44.00;37.25;24.75
69746;PMS7003;57018;50.278;19.134;2022-10-22T13:49:14;48.50;39.00;24.75
69746;PMS7003;57018;50.278;19.134;2022-10-22T13:51:47;44.50;36.75;24.00
69746;PMS7003;57018;50.278;19.134;2022-10-22T13:54:16;41.50;35.25;23.00
69746;PMS7003;57018;50.278;19.134;2022-10-22T13:56:47;50.00;41.00;27.00
69746;PMS7003;57018;50.278;19.134;2022-10-22T13:59:13;50.50;42.25;28.00
69746;PMS7003;57018;50.278;19.134;2022-10-22T14:01:40;41.75;33.75;22.50
69746;PMS7003;57018;50.278;19.134;2022-10-22T14:04:07;50.75;42.25;28.00
69746;PMS7003;57018;50.278;19.134;2022-10-22T14:06:36;52.50;41.00;26.75
69746;PMS7003;57018;50.278;19.134;2022-10-22T14:09:09;48.75;39.75;27.00
69746;PMS7003;57018;50.278;19.134;2022-10-22T14:11:33;56.75;43.25;27.50
69746;PMS7003;57018;50.278;19.134;2022-10-22T14:13:59;53.50;42.75;27.25
69746;PMS7003;57018;50.278;19.134;2022-10-22T14:16:28;51.00;41.50;27.00
69746;PMS7003;57018;50.278;19.134;2022-10-22T14:18:57;49.25;41.25;27.00
69746;PMS7003;57018;50.278;19.134;2022-10-22T14:21:25;53.25;43.25;27.75
69746;PMS7003;57018;50.278;19.134;2022-10-22T14:23:58;50.00;41.00;27.50
69746;PMS7003;57018;50.278;19.134;2022-10-22T14:26:25;44.75;36.50;24.25
69746;PMS7003;57018;50.278;19.134;2022-10-22T14:28:57;54.50;45.25;31.25
69746;PMS7003;57018;50.278;19.134;2022-10-22T14:31:24;55.25;45.25;29.00
69746;PMS7003;57018;50.278;19.134;2022-10-22T14:33:51;52.25;43.75;28.75
69746;PMS7003;57018;50.278;19.134;2022-10-22T14:36:17;55.75;45.75;29.50
69746;PMS7003;57018;50.278;19.134;2022-10-22T14:38:45;59.75;47.75;32.00
69746;PMS7003;57018;50.278;19.134;2022-10-22T14:41:19;60.50;47.50;31.25
69746;PMS7003;57018;50.278;19.134;2022-10-22T14:43:47;57.50;45.00;30.25
69746;PMS7003;57018;50.278;19.134;2022-10-22T14:46:14;60.25;49.25;32.00
69746;PMS7003;57018;50.278;19.134;2022-10-22T14:48:42;63.75;48.50;31.50
69746;PMS7003;57018;50.278;19.134;2022-10-22T14:51:13;63.50;51.25;32.50
69746;PMS7003;57018;50.278;19.134;2022-10-22T14:53:37;62.75;49.00;32.25
69746;PMS7003;57018;50.278;19.134;2022-10-22T14:56:03;61.50;50.00;32.00
69746;PMS7003;57018;50.278;19.134;2022-10-22T14:58:29;60.25;48.25;32.00
69746;PMS7003;57018;50.278;19.134;2022-10-22T15:00:56;63.50;48.50;31.25
69746;PMS7003;57018;50.278;19.134;2022-10-22T15:03:22;62.50;48.25;31.00
69746;PMS7003;57018;50.278;19.134;2022-10-22T15:05:50;68.75;54.00;34.50
69746;PMS7003;57018;50.278;19.134;2022-10-22T15:08:18;61.75;48.25;32.00
69746;PMS7003;57018;50.278;19.134;2022-10-22T15:10:45;67.50;51.00;34.25
69746;PMS7003;57018;50.278;19.134;2022-10-22T15:13:13;60.75;48.75;31.25
69746;PMS7003;57018;50.278;19.134;2022-10-22T15:15:39;64.50;50.50;31.50
69746;PMS7003;57018;50.278;19.134;2022-10-22T15:18:06;64.00;50.50;32.00
69746;PMS7003;57018;50.278;19.134;2022-10-22T15:20:32;66.50;53.00;34.00
69746;PMS7003;57018;50.278;19.134;2022-10-22T15:22:58;65.25;51.25;32.75
69746;PMS7003;57018;50.278;19.134;2022-10-22T15:25:24;65.25;52.50;33.25